Flight Track Log - Related Links

Times and Time Zones

All times are in EDT time to prevent confusion due to time zone crossing. See the FLG4262 flight status page for this flight to view local times or setup timezone preferences in your user account.


Time Position Orientation Groundspeed Altitude Reporting Facility
EDT Latitude Longitude Course Direction KTS MPH feet Rate Location/Type
Sun 03:59:02 PM 42.2097 -83.3478 181° South 135 155 1,700  Level Cleveland Center
Sun 03:59:27 PM 42.1908 -83.3481 181° South 179 206 2,500 2,229 Climbing Cleveland Center
Sun 04:00:12 PM 42.1628 -83.3414 170° South 175 201 4,300 3,049 Climbing Cleveland Center
Sun 04:00:28 PM 42.1353 -83.3347 170° South 225 259 5,600 2,954 Climbing Cleveland Center
Sun 04:01:17 PM 42.0936 -83.3097 156° South 260 299 7,500 2,852 Climbing Cleveland Center
Sun 04:01:29 PM 42.0811 -83.2764 117° Southeast 296 341 8,500 2,400 Climbing Cleveland Center
Sun 04:02:17 PM 42.0831 -83.1850 88° East 325 374 9,900 1,475 Climbing Cleveland Center
Sun 04:02:30 PM 42.0881 -83.1592 75° East 348 400 10,000 1,065 Climbing Cleveland Center
Sun 04:03:19 PM 42.1231 -83.0689 62° Northeast 341 392 11,000 1,475 Climbing Cleveland Center
Sun 04:03:31 PM 42.1397 -83.0311 59° Northeast 379 436 11,500 1,355 Climbing Cleveland Center
Sun 04:04:21 PM 42.1767 -82.9375 62° Northeast 392 451 12,400 964 Climbing Cleveland Center
Sun 04:05:23 PM 42.2344 -82.7919 62° Northeast 437 503 13,300 1,935 Climbing Cleveland Center
Sun 04:06:25 PM 42.3061 -82.6139 61° Northeast 452 520 16,400 2,806 Climbing Cleveland Center
Sun 04:07:27 PM 42.3617 -82.4711 62° Northeast 440 506 19,100 2,177 Climbing Cleveland Center
Sun 04:08:29 PM 42.3625 -82.3139 90° East 427 491 20,900 1,548 Climbing Cleveland Center
Sun 04:09:31 PM 42.3561 -82.1539 93° East 422 486 22,300 1,210 Climbing Cleveland Center
Sun 04:10:33 PM 42.3492 -81.9914 93° East 436 502 23,400 1,113 Climbing Cleveland Center
Sun 04:11:35 PM 42.3408 -81.7906 93° East 448 516 24,600 774 Climbing Cleveland Center
Sun 04:12:37 PM 42.3325 -81.6156 94° East 457 526 25,000 194 Climbing Cleveland Center
Sun 04:13:39 PM 42.3242 -81.4303 93° East 482 555 25,000  Level Cleveland Center
Sun 04:14:42 PM 42.3147 -81.2419 94° East 492 566 25,000  Level Cleveland Center
Sun 04:15:44 PM 42.3047 -81.0506 94° East 501 577 25,000  Level Cleveland Center
Sun 04:16:46 PM 42.2944 -80.8600 94° East 503 579 25,000  Level Cleveland Center
Sun 04:17:48 PM 42.2850 -80.6692 94° East 504 580 25,000  Level Cleveland Center
Sun 04:18:50 PM 42.2739 -80.4792 94° East 502 578 25,000  Level Cleveland Center
Sun 04:19:52 PM 42.2619 -80.2608 94° East 500 575 25,000  Level Cleveland Center
Sun 04:20:54 PM 42.2506 -80.0725 95° East 499 574 25,000  Level Cleveland Center
Sun 04:21:56 PM 42.2378 -79.8772 95° East 496 571 25,000  Level Cleveland Center
Sun 04:22:58 PM 42.2258 -79.6931 95° East 495 570 25,000  Level Cleveland Center
Sun 04:24:00 PM 42.2139 -79.5081 95° East 495 570 25,000  Level Cleveland Center
Sun 04:25:02 PM 42.2011 -79.3253 95° East 495 570 25,000  Level Cleveland Center
Sun 04:26:04 PM 42.1897 -79.1419 95° East 495 570 25,000  Level Cleveland Center
Sun 04:27:06 PM 42.1922 -78.9561 89° East 498 573 25,000  Level Cleveland Center
Sun 04:28:08 PM 42.1961 -78.7336 89° East 491 565 25,000  Level Cleveland Center
Sun 04:29:10 PM 42.1989 -78.5489 89° East 492 566 25,000  Level Cleveland Center
Sun 04:30:11 PM 42.2022 -78.3664 89° East 492 566 25,000 -537 Level Cleveland Center
Sun 04:31:13 PM 42.2036 -78.1833 89° East 492 566 23,900 -1,065 Descending Cleveland Center
Sun 04:32:15 PM 42.2050 -78.0019 89° East 491 565 22,800 -1,065 Descending Cleveland Center
Sun 04:33:17 PM 42.2075 -77.8203 89° East 491 565 21,700 -1,161 Descending Cleveland Center
Sun 04:34:19 PM 42.2078 -77.6075 90° East 485 558 20,400 -1,171 Descending Cleveland Center
Sun 04:35:20 PM 42.2092 -77.4317 89° East 477 549 19,300 -1,073 Descending Cleveland Center
Sun 04:36:22 PM 42.2103 -77.2594 89° East 470 541 18,200 -1,161 Descending Cleveland Center
Sun 04:37:24 PM 42.2106 -77.0889 90° East 463 533 16,900 -1,500 Descending Cleveland Center
Sun 04:38:26 PM 42.2108 -76.9325 90° East 424 488 15,100 -1,984 Descending Cleveland Center
Sun 04:39:28 PM 42.2108 -76.7514 90° East 407 468 12,800 -1,951 Descending Cleveland Center
Sun 04:40:29 PM 42.2136 -76.6133 88° East 373 429 11,100 -1,756 Descending Cleveland Center
Sun 04:41:31 PM 42.2289 -76.4897 80° East 341 392 9,200 -1,839 Descending Cleveland Center
Sun 04:42:33 PM 42.2411 -76.3742 82° East 329 379 7,300 -1,887 Descending Cleveland Center
Sun 04:43:35 PM 42.2525 -76.2697 82° East 296 341 5,300 -1,645 Descending Cleveland Center
Sun 04:44:37 PM 42.2628 -76.1506 83° East 274 315 3,900 -823 Descending Cleveland Center
Sun 04:45:39 PM 42.2753 -76.0853 75° East 226 260 3,600 -194 Descending Cleveland Center
Sun 04:46:41 PM 42.2736 -76.0208 92° East 216 249 3,500 -97 Descending Cleveland Center

Login

Don't have an account? Register now (free) for customized features, flight alerts, and more!